sensor_id;sensor_type;location;lat;lon;timestamp;P1;durP1;ratioP1;P2;durP2;ratioP2
67597;SDS011;62026;39.230;9.122;2023-03-05T00:00:43;11.55;;;6.20;;
67597;SDS011;62026;39.230;9.122;2023-03-05T00:03:09;11.63;;;6.10;;
67597;SDS011;62026;39.230;9.122;2023-03-05T00:05:35;11.45;;;5.78;;
67597;SDS011;62026;39.230;9.122;2023-03-05T00:08:01;14.88;;;6.55;;
67597;SDS011;62026;39.230;9.122;2023-03-05T00:10:28;15.13;;;6.20;;
67597;SDS011;62026;39.230;9.122;2023-03-05T00:12:54;13.75;;;6.47;;
67597;SDS011;62026;39.230;9.122;2023-03-05T00:15:19;12.13;;;6.30;;
67597;SDS011;62026;39.230;9.122;2023-03-05T00:17:46;12.63;;;6.30;;
67597;SDS011;62026;39.230;9.122;2023-03-05T00:20:12;17.65;;;6.10;;
67597;SDS011;62026;39.230;9.122;2023-03-05T00:22:38;9.95;;;5.95;;
67597;SDS011;62026;39.230;9.122;2023-03-05T00:25:04;10.90;;;5.55;;
67597;SDS011;62026;39.230;9.122;2023-03-05T00:27:31;10.68;;;5.80;;
67597;SDS011;62026;39.230;9.122;2023-03-05T00:29:57;8.82;;;5.05;;
67597;SDS011;62026;39.230;9.122;2023-03-05T00:32:23;8.70;;;5.00;;
67597;SDS011;62026;39.230;9.122;2023-03-05T00:34:49;11.18;;;5.30;;
67597;SDS011;62026;39.230;9.122;2023-03-05T00:37:15;9.15;;;5.63;;
67597;SDS011;62026;39.230;9.122;2023-03-05T00:39:41;8.65;;;5.10;;
67597;SDS011;62026;39.230;9.122;2023-03-05T00:42:07;10.55;;;4.97;;
67597;SDS011;62026;39.230;9.122;2023-03-05T00:44:33;15.20;;;5.55;;
67597;SDS011;62026;39.230;9.122;2023-03-05T00:46:59;10.50;;;6.05;;
67597;SDS011;62026;39.230;9.122;2023-03-05T00:49:25;11.52;;;5.57;;
67597;SDS011;62026;39.230;9.122;2023-03-05T00:51:51;15.00;;;6.45;;
67597;SDS011;62026;39.230;9.122;2023-03-05T00:54:17;10.55;;;6.22;;
67597;SDS011;62026;39.230;9.122;2023-03-05T00:56:43;17.20;;;6.72;;
67597;SDS011;62026;39.230;9.122;2023-03-05T00:59:10;15.48;;;7.05;;
67597;SDS011;62026;39.230;9.122;2023-03-05T01:01:36;12.55;;;6.60;;
67597;SDS011;62026;39.230;9.122;2023-03-05T01:04:02;14.43;;;7.05;;
67597;SDS011;62026;39.230;9.122;2023-03-05T01:06:28;14.35;;;6.97;;
67597;SDS011;62026;39.230;9.122;2023-03-05T01:08:54;16.17;;;7.82;;
67597;SDS011;62026;39.230;9.122;2023-03-05T01:11:22;13.85;;;7.38;;
67597;SDS011;62026;39.230;9.122;2023-03-05T01:13:48;17.73;;;7.40;;
67597;SDS011;62026;39.230;9.122;2023-03-05T01:16:14;14.02;;;7.25;;
67597;SDS011;62026;39.230;9.122;2023-03-05T01:18:40;14.98;;;7.35;;
67597;SDS011;62026;39.230;9.122;2023-03-05T01:21:06;17.00;;;7.90;;
67597;SDS011;62026;39.230;9.122;2023-03-05T01:23:33;14.80;;;6.85;;
67597;SDS011;62026;39.230;9.122;2023-03-05T01:26:01;15.45;;;7.55;;
67597;SDS011;62026;39.230;9.122;2023-03-05T01:28:28;19.17;;;7.75;;
67597;SDS011;62026;39.230;9.122;2023-03-05T01:30:54;15.77;;;7.43;;
67597;SDS011;62026;39.230;9.122;2023-03-05T01:33:20;17.70;;;7.95;;
67597;SDS011;62026;39.230;9.122;2023-03-05T01:35:46;14.40;;;7.72;;
67597;SDS011;62026;39.230;9.122;2023-03-05T01:38:14;16.02;;;7.03;;
67597;SDS011;62026;39.230;9.122;2023-03-05T01:40:41;17.33;;;7.53;;
67597;SDS011;62026;39.230;9.122;2023-03-05T01:45:37;15.45;;;7.55;;
67597;SDS011;62026;39.230;9.122;2023-03-05T01:48:44;13.18;;;6.97;;
67597;SDS011;62026;39.230;9.122;2023-03-05T01:51:17;15.15;;;7.20;;
67597;SDS011;62026;39.230;9.122;2023-03-05T01:53:46;14.27;;;7.05;;
67597;SDS011;62026;39.230;9.122;2023-03-05T01:56:13;14.73;;;7.53;;
67597;SDS011;62026;39.230;9.122;2023-03-05T01:58:41;17.27;;;8.43;;
67597;SDS011;62026;39.230;9.122;2023-03-05T02:01:08;15.02;;;7.60;;
67597;SDS011;62026;39.230;9.122;2023-03-05T02:03:34;15.73;;;7.38;;
67597;SDS011;62026;39.230;9.122;2023-03-05T02:06:02;17.17;;;7.85;;
67597;SDS011;62026;39.230;9.122;2023-03-05T02:08:28;16.50;;;8.50;;
67597;SDS011;62026;39.230;9.122;2023-03-05T02:10:54;14.30;;;7.53;;
67597;SDS011;62026;39.230;9.122;2023-03-05T02:13:25;13.73;;;7.65;;
67597;SDS011;62026;39.230;9.122;2023-03-05T02:15:57;17.95;;;8.57;;
67597;SDS011;62026;39.230;9.122;2023-03-05T02:18:26;20.02;;;8.40;;
67597;SDS011;62026;39.230;9.122;2023-03-05T02:23:32;18.05;;;7.85;;
67597;SDS011;62026;39.230;9.122;2023-03-05T02:26:08;20.42;;;9.13;;
67597;SDS011;62026;39.230;9.122;2023-03-05T02:28:42;17.25;;;8.10;;
67597;SDS011;62026;39.230;9.122;2023-03-05T02:31:15;15.10;;;7.95;;
67597;SDS011;62026;39.230;9.122;2023-03-05T02:33:44;11.85;;;7.95;;
67597;SDS011;62026;39.230;9.122;2023-03-05T02:36:11;17.90;;;7.90;;
67597;SDS011;62026;39.230;9.122;2023-03-05T02:38:39;17.73;;;7.72;;
67597;SDS011;62026;39.230;9.122;2023-03-05T02:41:09;17.13;;;8.18;;
67597;SDS011;62026;39.230;9.122;2023-03-05T02:43:37;14.10;;;8.18;;
67597;SDS011;62026;39.230;9.122;2023-03-05T02:46:03;17.20;;;8.00;;
67597;SDS011;62026;39.230;9.122;2023-03-05T02:48:31;25.55;;;8.65;;
67597;SDS011;62026;39.230;9.122;2023-03-05T02:50:57;16.75;;;8.25;;
67597;SDS011;62026;39.230;9.122;2023-03-05T02:53:23;18.73;;;8.05;;
67597;SDS011;62026;39.230;9.122;2023-03-05T02:55:51;23.77;;;8.55;;
67597;SDS011;62026;39.230;9.122;2023-03-05T02:58:17;19.77;;;8.25;;
67597;SDS011;62026;39.230;9.122;2023-03-05T03:00:43;17.88;;;8.25;;
67597;SDS011;62026;39.230;9.122;2023-03-05T03:03:10;19.60;;;8.18;;
67597;SDS011;62026;39.230;9.122;2023-03-05T03:05:38;18.52;;;8.20;;
67597;SDS011;62026;39.230;9.122;2023-03-05T03:08:04;17.98;;;8.35;;
67597;SDS011;62026;39.230;9.122;2023-03-05T03:10:31;15.07;;;7.90;;
67597;SDS011;62026;39.230;9.122;2023-03-05T03:12:58;14.77;;;8.05;;
67597;SDS011;62026;39.230;9.122;2023-03-05T03:15:24;18.42;;;8.13;;
67597;SDS011;62026;39.230;9.122;2023-03-05T03:17:50;21.77;;;7.78;;
67597;SDS011;62026;39.230;9.122;2023-03-05T03:20:16;16.48;;;8.18;;
67597;SDS011;62026;39.230;9.122;2023-03-05T03:22:43;15.70;;;8.45;;
67597;SDS011;62026;39.230;9.122;2023-03-05T03:25:18;15.15;;;7.47;;
67597;SDS011;62026;39.230;9.122;2023-03-05T03:27:50;17.20;;;7.70;;
67597;SDS011;62026;39.230;9.122;2023-03-05T03:30:16;17.30;;;7.10;;
67597;SDS011;62026;39.230;9.122;2023-03-05T03:32:42;13.48;;;7.05;;
67597;SDS011;62026;39.230;9.122;2023-03-05T03:35:09;17.30;;;7.43;;
67597;SDS011;62026;39.230;9.122;2023-03-05T03:37:36;19.30;;;7.47;;
67597;SDS011;62026;39.230;9.122;2023-03-05T03:40:03;17.65;;;7.32;;
67597;SDS011;62026;39.230;9.122;2023-03-05T03:42:31;17.83;;;7.63;;
67597;SDS011;62026;39.230;9.122;2023-03-05T03:44:57;14.23;;;7.15;;
67597;SDS011;62026;39.230;9.122;2023-03-05T03:47:24;16.13;;;7.47;;
67597;SDS011;62026;39.230;9.122;2023-03-05T03:49:52;15.00;;;6.95;;
67597;SDS011;62026;39.230;9.122;2023-03-05T03:52:19;14.20;;;7.40;;
67597;SDS011;62026;39.230;9.122;2023-03-05T03:54:47;16.90;;;7.13;;
67597;SDS011;62026;39.230;9.122;2023-03-05T03:57:16;18.92;;;6.97;;
67597;SDS011;62026;39.230;9.122;2023-03-05T03:59:42;14.00;;;7.10;;
67597;SDS011;62026;39.230;9.122;2023-03-05T04:02:10;16.00;;;8.32;;
67597;SDS011;62026;39.230;9.122;2023-03-05T04:04:36;19.20;;;7.20;;
67597;SDS011;62026;39.230;9.122;2023-03-05T04:07:02;16.33;;;7.50;;
67597;SDS011;62026;39.230;9.122;2023-03-05T04:09:28;13.43;;;7.00;;
67597;SDS011;62026;39.230;9.122;2023-03-05T04:11:54;24.10;;;7.78;;
67597;SDS011;62026;39.230;9.122;2023-03-05T04:14:20;16.48;;;8.20;;
67597;SDS011;62026;39.230;9.122;2023-03-05T04:16:46;15.63;;;7.38;;
67597;SDS011;62026;39.230;9.122;2023-03-05T04:19:12;17.02;;;7.07;;
67597;SDS011;62026;39.230;9.122;2023-03-05T04:21:38;21.00;;;8.60;;
67597;SDS011;62026;39.230;9.122;2023-03-05T04:24:04;17.33;;;7.72;;
67597;SDS011;62026;39.230;9.122;2023-03-05T04:26:32;15.15;;;7.65;;
67597;SDS011;62026;39.230;9.122;2023-03-05T04:28:58;14.10;;;7.57;;
67597;SDS011;62026;39.230;9.122;2023-03-05T04:31:24;15.95;;;8.07;;
67597;SDS011;62026;39.230;9.122;2023-03-05T04:33:50;14.35;;;7.85;;
67597;SDS011;62026;39.230;9.122;2023-03-05T04:36:16;18.95;;;7.53;;
67597;SDS011;62026;39.230;9.122;2023-03-05T04:38:42;13.88;;;7.35;;
67597;SDS011;62026;39.230;9.122;2023-03-05T04:41:08;17.77;;;8.40;;
67597;SDS011;62026;39.230;9.122;2023-03-05T04:43:35;14.70;;;7.78;;
67597;SDS011;62026;39.230;9.122;2023-03-05T04:46:00;20.40;;;7.68;;
67597;SDS011;62026;39.230;9.122;2023-03-05T04:48:26;13.38;;;7.45;;
67597;SDS011;62026;39.230;9.122;2023-03-05T04:50:52;14.95;;;7.35;;
67597;SDS011;62026;39.230;9.122;2023-03-05T04:53:18;15.00;;;7.45;;
67597;SDS011;62026;39.230;9.122;2023-03-05T04:55:44;14.13;;;8.13;;
67597;SDS011;62026;39.230;9.122;2023-03-05T04:58:10;15.02;;;7.63;;
67597;SDS011;62026;39.230;9.122;2023-03-05T05:00:37;17.83;;;7.70;;
67597;SDS011;62026;39.230;9.122;2023-03-05T05:03:03;15.48;;;7.88;;
67597;SDS011;62026;39.230;9.122;2023-03-05T05:05:29;17.20;;;7.97;;
67597;SDS011;62026;39.230;9.122;2023-03-05T05:07:56;18.17;;;8.60;;
67597;SDS011;62026;39.230;9.122;2023-03-05T05:10:23;18.05;;;7.78;;
67597;SDS011;62026;39.230;9.122;2023-03-05T05:12:50;17.88;;;7.97;;
67597;SDS011;62026;39.230;9.122;2023-03-05T05:15:16;16.83;;;8.48;;
67597;SDS011;62026;39.230;9.122;2023-03-05T05:17:43;16.73;;;8.00;;
67597;SDS011;62026;39.230;9.122;2023-03-05T05:20:11;19.05;;;9.15;;
67597;SDS011;62026;39.230;9.122;2023-03-05T05:22:39;24.38;;;9.88;;
67597;SDS011;62026;39.230;9.122;2023-03-05T05:25:05;20.65;;;9.13;;
67597;SDS011;62026;39.230;9.122;2023-03-05T05:27:32;20.85;;;8.93;;
67597;SDS011;62026;39.230;9.122;2023-03-05T05:29:58;26.73;;;9.70;;
67597;SDS011;62026;39.230;9.122;2023-03-05T05:32:24;19.48;;;8.82;;
67597;SDS011;62026;39.230;9.122;2023-03-05T05:34:54;16.10;;;8.15;;
67597;SDS011;62026;39.230;9.122;2023-03-05T05:37:22;15.37;;;7.80;;
67597;SDS011;62026;39.230;9.122;2023-03-05T05:39:49;18.38;;;7.60;;
67597;SDS011;62026;39.230;9.122;2023-03-05T05:42:19;11.88;;;6.60;;
67597;SDS011;62026;39.230;9.122;2023-03-05T05:44:48;16.23;;;6.95;;
67597;SDS011;62026;39.230;9.122;2023-03-05T05:47:15;21.08;;;7.38;;
67597;SDS011;62026;39.230;9.122;2023-03-05T05:49:42;17.42;;;7.32;;
67597;SDS011;62026;39.230;9.122;2023-03-05T05:52:08;18.83;;;7.05;;
67597;SDS011;62026;39.230;9.122;2023-03-05T05:54:34;12.20;;;7.05;;
67597;SDS011;62026;39.230;9.122;2023-03-05T05:57:00;20.35;;;7.22;;
67597;SDS011;62026;39.230;9.122;2023-03-05T05:59:26;16.33;;;7.55;;
67597;SDS011;62026;39.230;9.122;2023-03-05T06:01:52;13.80;;;7.10;;
67597;SDS011;62026;39.230;9.122;2023-03-05T06:04:18;16.40;;;7.68;;
67597;SDS011;62026;39.230;9.122;2023-03-05T06:06:44;15.95;;;7.40;;
67597;SDS011;62026;39.230;9.122;2023-03-05T06:09:10;20.33;;;7.75;;
67597;SDS011;62026;39.230;9.122;2023-03-05T06:11:36;14.98;;;7.80;;
67597;SDS011;62026;39.230;9.122;2023-03-05T06:14:02;21.60;;;8.50;;
67597;SDS011;62026;39.230;9.122;2023-03-05T06:16:29;16.48;;;8.10;;
67597;SDS011;62026;39.230;9.122;2023-03-05T06:18:55;21.42;;;9.80;;
67597;SDS011;62026;39.230;9.122;2023-03-05T06:21:21;15.68;;;8.05;;
67597;SDS011;62026;39.230;9.122;2023-03-05T06:23:49;19.73;;;8.68;;
67597;SDS011;62026;39.230;9.122;2023-03-05T06:26:17;20.20;;;9.82;;
67597;SDS011;62026;39.230;9.122;2023-03-05T06:28:45;18.40;;;9.63;;
67597;SDS011;62026;39.230;9.122;2023-03-05T06:31:15;19.60;;;8.60;;
67597;SDS011;62026;39.230;9.122;2023-03-05T06:33:46;18.95;;;9.13;;
67597;SDS011;62026;39.230;9.122;2023-03-05T06:36:14;15.95;;;8.48;;
67597;SDS011;62026;39.230;9.122;2023-03-05T06:38:42;17.52;;;7.70;;
67597;SDS011;62026;39.230;9.122;2023-03-05T06:41:13;17.75;;;8.00;;
67597;SDS011;62026;39.230;9.122;2023-03-05T06:43:43;15.30;;;7.28;;
67597;SDS011;62026;39.230;9.122;2023-03-05T06:46:12;14.13;;;6.15;;
67597;SDS011;62026;39.230;9.122;2023-03-05T06:49:12;21.23;;;7.40;;
67597;SDS011;62026;39.230;9.122;2023-03-05T06:51:39;18.42;;;7.32;;
67597;SDS011;62026;39.230;9.122;2023-03-05T06:54:06;21.15;;;7.97;;
67597;SDS011;62026;39.230;9.122;2023-03-05T06:56:38;16.38;;;7.90;;
67597;SDS011;62026;39.230;9.122;2023-03-05T06:59:06;14.27;;;8.35;;
67597;SDS011;62026;39.230;9.122;2023-03-05T07:01:33;17.45;;;8.43;;
67597;SDS011;62026;39.230;9.122;2023-03-05T07:03:59;17.27;;;8.43;;
67597;SDS011;62026;39.230;9.122;2023-03-05T07:06:28;18.55;;;8.57;;
67597;SDS011;62026;39.230;9.122;2023-03-05T07:08:58;16.13;;;8.48;;
67597;SDS011;62026;39.230;9.122;2023-03-05T07:11:26;20.58;;;9.05;;
67597;SDS011;62026;39.230;9.122;2023-03-05T07:13:53;19.60;;;9.65;;
67597;SDS011;62026;39.230;9.122;2023-03-05T07:16:26;18.45;;;8.95;;
67597;SDS011;62026;39.230;9.122;2023-03-05T07:18:56;17.67;;;8.88;;
67597;SDS011;62026;39.230;9.122;2023-03-05T07:21:26;16.75;;;9.07;;
67597;SDS011;62026;39.230;9.122;2023-03-05T07:23:56;22.10;;;10.00;;
67597;SDS011;62026;39.230;9.122;2023-03-05T07:26:25;17.48;;;9.65;;
67597;SDS011;62026;39.230;9.122;2023-03-05T07:28:52;18.67;;;8.70;;
67597;SDS011;62026;39.230;9.122;2023-03-05T07:31:20;22.80;;;9.55;;
67597;SDS011;62026;39.230;9.122;2023-03-05T07:33:51;21.00;;;10.73;;
67597;SDS011;62026;39.230;9.122;2023-03-05T07:36:17;20.77;;;9.63;;
67597;SDS011;62026;39.230;9.122;2023-03-05T07:38:44;21.65;;;10.55;;
67597;SDS011;62026;39.230;9.122;2023-03-05T07:41:11;17.00;;;9.50;;
67597;SDS011;62026;39.230;9.122;2023-03-05T07:43:44;25.80;;;10.85;;
67597;SDS011;62026;39.230;9.122;2023-03-05T07:46:13;24.52;;;9.20;;
67597;SDS011;62026;39.230;9.122;2023-03-05T07:48:41;19.40;;;9.20;;
67597;SDS011;62026;39.230;9.122;2023-03-05T07:51:15;19.92;;;9.15;;
67597;SDS011;62026;39.230;9.122;2023-03-05T07:53:44;18.35;;;8.93;;
67597;SDS011;62026;39.230;9.122;2023-03-05T07:56:13;19.60;;;8.90;;
67597;SDS011;62026;39.230;9.122;2023-03-05T07:58:48;15.13;;;8.13;;
67597;SDS011;62026;39.230;9.122;2023-03-05T08:01:14;19.40;;;8.60;;
67597;SDS011;62026;39.230;9.122;2023-03-05T08:03:41;17.33;;;8.45;;
67597;SDS011;62026;39.230;9.122;2023-03-05T08:06:08;15.07;;;8.15;;
67597;SDS011;62026;39.230;9.122;2023-03-05T08:08:37;14.88;;;7.68;;
67597;SDS011;62026;39.230;9.122;2023-03-05T08:11:10;16.70;;;7.97;;
67597;SDS011;62026;39.230;9.122;2023-03-05T08:13:39;16.63;;;7.85;;
67597;SDS011;62026;39.230;9.122;2023-03-05T08:16:13;19.10;;;8.48;;
67597;SDS011;62026;39.230;9.122;2023-03-05T08:18:45;14.75;;;8.10;;
67597;SDS011;62026;39.230;9.122;2023-03-05T08:21:45;19.63;;;7.82;;
67597;SDS011;62026;39.230;9.122;2023-03-05T08:24:06;17.67;;;7.10;;
67597;SDS011;62026;39.230;9.122;2023-03-05T08:26:33;18.25;;;9.10;;
67597;SDS011;62026;39.230;9.122;2023-03-05T08:29:05;18.20;;;8.82;;
67597;SDS011;62026;39.230;9.122;2023-03-05T08:31:34;19.52;;;9.27;;
67597;SDS011;62026;39.230;9.122;2023-03-05T08:34:00;18.88;;;9.13;;
67597;SDS011;62026;39.230;9.122;2023-03-05T08:36:27;16.20;;;8.15;;
67597;SDS011;62026;39.230;9.122;2023-03-05T08:38:54;20.17;;;8.35;;
67597;SDS011;62026;39.230;9.122;2023-03-05T08:41:20;16.00;;;8.20;;
67597;SDS011;62026;39.230;9.122;2023-03-05T08:43:47;19.80;;;8.90;;
67597;SDS011;62026;39.230;9.122;2023-03-05T08:46:13;19.35;;;8.95;;
67597;SDS011;62026;39.230;9.122;2023-03-05T08:48:41;17.77;;;8.95;;
67597;SDS011;62026;39.230;9.122;2023-03-05T08:51:12;24.67;;;9.57;;
67597;SDS011;62026;39.230;9.122;2023-03-05T08:53:42;21.25;;;8.63;;
67597;SDS011;62026;39.230;9.122;2023-03-05T08:56:09;14.57;;;7.82;;
67597;SDS011;62026;39.230;9.122;2023-03-05T08:58:36;17.05;;;7.80;;
67597;SDS011;62026;39.230;9.122;2023-03-05T09:01:02;20.08;;;8.07;;
67597;SDS011;62026;39.230;9.122;2023-03-05T09:03:30;18.27;;;8.18;;
67597;SDS011;62026;39.230;9.122;2023-03-05T09:05:59;21.90;;;7.75;;
67597;SDS011;62026;39.230;9.122;2023-03-05T09:08:28;17.30;;;7.45;;
67597;SDS011;62026;39.230;9.122;2023-03-05T09:10:54;23.48;;;7.63;;
67597;SDS011;62026;39.230;9.122;2023-03-05T09:13:21;17.38;;;7.68;;
67597;SDS011;62026;39.230;9.122;2023-03-05T09:15:54;16.67;;;7.78;;
67597;SDS011;62026;39.230;9.122;2023-03-05T09:18:26;21.42;;;7.93;;
67597;SDS011;62026;39.230;9.122;2023-03-05T09:20:53;21.45;;;7.82;;
67597;SDS011;62026;39.230;9.122;2023-03-05T09:23:19;17.77;;;7.90;;
67597;SDS011;62026;39.230;9.122;2023-03-05T09:25:46;16.15;;;8.52;;
67597;SDS011;62026;39.230;9.122;2023-03-05T09:28:12;11.93;;;7.00;;
67597;SDS011;62026;39.230;9.122;2023-03-05T09:30:38;19.50;;;7.55;;
67597;SDS011;62026;39.230;9.122;2023-03-05T09:33:04;23.45;;;7.97;;
67597;SDS011;62026;39.230;9.122;2023-03-05T09:35:33;16.33;;;7.60;;
67597;SDS011;62026;39.230;9.122;2023-03-05T09:38:01;17.88;;;6.97;;
67597;SDS011;62026;39.230;9.122;2023-03-05T09:40:43;11.95;;;6.55;;
67597;SDS011;62026;39.230;9.122;2023-03-05T09:46:52;13.48;;;6.25;;
67597;SDS011;62026;39.230;9.122;2023-03-05T09:49:45;20.13;;;7.50;;
67597;SDS011;62026;39.230;9.122;2023-03-05T09:52:27;20.33;;;7.53;;
67597;SDS011;62026;39.230;9.122;2023-03-05T10:10:47;17.38;;;8.07;;
67597;SDS011;62026;39.230;9.122;2023-03-05T10:21:35;16.13;;;7.05;;
67597;SDS011;62026;39.230;9.122;2023-03-05T10:24:19;20.33;;;7.10;;
67597;SDS011;62026;39.230;9.122;2023-03-05T10:27:33;11.13;;;6.80;;
67597;SDS011;62026;39.230;9.122;2023-03-05T10:30:23;13.18;;;6.28;;
67597;SDS011;62026;39.230;9.122;2023-03-05T10:39:17;15.75;;;6.68;;
67597;SDS011;62026;39.230;9.122;2023-03-05T10:42:11;20.08;;;6.82;;
67597;SDS011;62026;39.230;9.122;2023-03-05T10:44:59;17.48;;;6.75;;
67597;SDS011;62026;39.230;9.122;2023-03-05T10:47:51;11.57;;;6.18;;
67597;SDS011;62026;39.230;9.122;2023-03-05T10:50:35;13.50;;;5.75;;
67597;SDS011;62026;39.230;9.122;2023-03-05T10:53:24;14.20;;;5.80;;
67597;SDS011;62026;39.230;9.122;2023-03-05T10:56:10;15.10;;;6.10;;
67597;SDS011;62026;39.230;9.122;2023-03-05T10:58:37;13.25;;;6.45;;
67597;SDS011;62026;39.230;9.122;2023-03-05T11:04:24;13.02;;;6.00;;
67597;SDS011;62026;39.230;9.122;2023-03-05T11:09:21;22.95;;;5.93;;
67597;SDS011;62026;39.230;9.122;2023-03-05T11:12:35;12.98;;;5.95;;
67597;SDS011;62026;39.230;9.122;2023-03-05T11:17:45;15.05;;;6.40;;
67597;SDS011;62026;39.230;9.122;2023-03-05T11:20:31;14.55;;;5.72;;
67597;SDS011;62026;39.230;9.122;2023-03-05T11:25:35;9.65;;;4.88;;
67597;SDS011;62026;39.230;9.122;2023-03-05T11:28:30;10.70;;;5.43;;
67597;SDS011;62026;39.230;9.122;2023-03-05T11:33:52;10.18;;;4.63;;
67597;SDS011;62026;39.230;9.122;2023-03-05T11:39:14;11.40;;;4.72;;
67597;SDS011;62026;39.230;9.122;2023-03-05T11:41:55;6.57;;;3.90;;
67597;SDS011;62026;39.230;9.122;2023-03-05T11:47:15;7.75;;;3.83;;
67597;SDS011;62026;39.230;9.122;2023-03-05T11:49:59;11.48;;;3.83;;
67597;SDS011;62026;39.230;9.122;2023-03-05T11:52:42;6.88;;;3.80;;
67597;SDS011;62026;39.230;9.122;2023-03-05T11:55:20;8.30;;;4.10;;
67597;SDS011;62026;39.230;9.122;2023-03-05T12:00:50;12.65;;;4.63;;
67597;SDS011;62026;39.230;9.122;2023-03-05T12:03:18;10.57;;;4.50;;
67597;SDS011;62026;39.230;9.122;2023-03-05T12:05:50;14.93;;;5.47;;
67597;SDS011;62026;39.230;9.122;2023-03-05T12:08:36;8.68;;;4.45;;
67597;SDS011;62026;39.230;9.122;2023-03-05T12:11:29;10.70;;;5.05;;
67597;SDS011;62026;39.230;9.122;2023-03-05T12:13:59;14.13;;;6.05;;
67597;SDS011;62026;39.230;9.122;2023-03-05T12:16:33;13.52;;;5.63;;
67597;SDS011;62026;39.230;9.122;2023-03-05T12:22:21;12.18;;;5.45;;
67597;SDS011;62026;39.230;9.122;2023-03-05T12:27:48;11.48;;;5.25;;
67597;SDS011;62026;39.230;9.122;2023-03-05T12:30:52;13.13;;;5.93;;
67597;SDS011;62026;39.230;9.122;2023-03-05T12:33:31;17.00;;;5.85;;
67597;SDS011;62026;39.230;9.122;2023-03-05T12:38:47;10.95;;;5.03;;
67597;SDS011;62026;39.230;9.122;2023-03-05T12:46:32;10.77;;;4.85;;
67597;SDS011;62026;39.230;9.122;2023-03-05T12:52:02;12.82;;;5.15;;
67597;SDS011;62026;39.230;9.122;2023-03-05T12:54:31;15.18;;;4.97;;
67597;SDS011;62026;39.230;9.122;2023-03-05T12:57:14;10.45;;;4.88;;
67597;SDS011;62026;39.230;9.122;2023-03-05T12:59:45;13.50;;;4.78;;
67597;SDS011;62026;39.230;9.122;2023-03-05T13:02:36;11.70;;;4.63;;
67597;SDS011;62026;39.230;9.122;2023-03-05T13:05:16;10.32;;;4.82;;
67597;SDS011;62026;39.230;9.122;2023-03-05T13:07:52;7.20;;;4.95;;
67597;SDS011;62026;39.230;9.122;2023-03-05T13:10:32;12.68;;;5.55;;
67597;SDS011;62026;39.230;9.122;2023-03-05T13:12:58;11.88;;;4.75;;
67597;SDS011;62026;39.230;9.122;2023-03-05T13:15:26;13.48;;;4.78;;
67597;SDS011;62026;39.230;9.122;2023-03-05T13:18:01;8.98;;;4.50;;
67597;SDS011;62026;39.230;9.122;2023-03-05T13:23:04;8.50;;;4.80;;
67597;SDS011;62026;39.230;9.122;2023-03-05T13:25:40;12.38;;;5.00;;
67597;SDS011;62026;39.230;9.122;2023-03-05T13:28:12;8.85;;;4.47;;
67597;SDS011;62026;39.230;9.122;2023-03-05T13:30:59;14.15;;;4.88;;
67597;SDS011;62026;39.230;9.122;2023-03-05T13:33:36;9.80;;;4.70;;
67597;SDS011;62026;39.230;9.122;2023-03-05T13:36:03;10.27;;;4.35;;
67597;SDS011;62026;39.230;9.122;2023-03-05T13:38:42;12.80;;;4.20;;
67597;SDS011;62026;39.230;9.122;2023-03-05T13:43:43;12.52;;;4.50;;
67597;SDS011;62026;39.230;9.122;2023-03-05T13:46:21;11.23;;;4.43;;
67597;SDS011;62026;39.230;9.122;2023-03-05T13:48:54;12.15;;;4.82;;
67597;SDS011;62026;39.230;9.122;2023-03-05T13:51:21;11.85;;;4.53;;
67597;SDS011;62026;39.230;9.122;2023-03-05T13:53:47;9.25;;;4.57;;
67597;SDS011;62026;39.230;9.122;2023-03-05T13:56:16;12.80;;;5.18;;
67597;SDS011;62026;39.230;9.122;2023-03-05T14:01:25;11.40;;;4.45;;
67597;SDS011;62026;39.230;9.122;2023-03-05T14:07:02;8.43;;;4.38;;
67597;SDS011;62026;39.230;9.122;2023-03-05T14:15:30;7.88;;;4.57;;
67597;SDS011;62026;39.230;9.122;2023-03-05T14:20:38;9.52;;;3.95;;
67597;SDS011;62026;39.230;9.122;2023-03-05T14:28:57;5.20;;;3.33;;
67597;SDS011;62026;39.230;9.122;2023-03-05T14:31:46;13.05;;;3.70;;
67597;SDS011;62026;39.230;9.122;2023-03-05T14:34:24;8.05;;;3.42;;
67597;SDS011;62026;39.230;9.122;2023-03-05T14:36:59;5.25;;;3.10;;
67597;SDS011;62026;39.230;9.122;2023-03-05T14:39:39;6.65;;;3.15;;
67597;SDS011;62026;39.230;9.122;2023-03-05T14:44:51;8.40;;;3.60;;
67597;SDS011;62026;39.230;9.122;2023-03-05T14:47:23;7.05;;;4.20;;
67597;SDS011;62026;39.230;9.122;2023-03-05T14:49:50;8.15;;;4.18;;
67597;SDS011;62026;39.230;9.122;2023-03-05T14:52:18;13.25;;;4.00;;
67597;SDS011;62026;39.230;9.122;2023-03-05T14:54:47;9.30;;;4.43;;
67597;SDS011;62026;39.230;9.122;2023-03-05T14:57:17;8.85;;;3.58;;
67597;SDS011;62026;39.230;9.122;2023-03-05T14:59:49;6.82;;;2.70;;
67597;SDS011;62026;39.230;9.122;2023-03-05T15:02:17;4.75;;;2.60;;
67597;SDS011;62026;39.230;9.122;2023-03-05T15:04:47;5.03;;;2.78;;
67597;SDS011;62026;39.230;9.122;2023-03-05T15:09:56;6.13;;;2.42;;
67597;SDS011;62026;39.230;9.122;2023-03-05T15:12:25;7.55;;;2.70;;
67597;SDS011;62026;39.230;9.122;2023-03-05T15:14:52;6.55;;;2.85;;
67597;SDS011;62026;39.230;9.122;2023-03-05T15:17:53;4.78;;;2.67;;
67597;SDS011;62026;39.230;9.122;2023-03-05T15:20:20;7.65;;;2.50;;
67597;SDS011;62026;39.230;9.122;2023-03-05T15:22:52;6.70;;;2.35;;
67597;SDS011;62026;39.230;9.122;2023-03-05T15:25:19;5.32;;;2.35;;
67597;SDS011;62026;39.230;9.122;2023-03-05T15:27:48;4.65;;;2.78;;
67597;SDS011;62026;39.230;9.122;2023-03-05T15:30:24;5.22;;;2.50;;
67597;SDS011;62026;39.230;9.122;2023-03-05T15:33:00;7.18;;;2.47;;
67597;SDS011;62026;39.230;9.122;2023-03-05T15:37:56;7.07;;;2.78;;
67597;SDS011;62026;39.230;9.122;2023-03-05T15:40:23;5.00;;;2.47;;
67597;SDS011;62026;39.230;9.122;2023-03-05T15:42:52;6.43;;;2.67;;
67597;SDS011;62026;39.230;9.122;2023-03-05T15:45:19;5.68;;;2.65;;
67597;SDS011;62026;39.230;9.122;2023-03-05T15:47:48;4.40;;;2.60;;
67597;SDS011;62026;39.230;9.122;2023-03-05T15:50:17;5.25;;;2.20;;
67597;SDS011;62026;39.230;9.122;2023-03-05T15:52:45;6.88;;;2.60;;
67597;SDS011;62026;39.230;9.122;2023-03-05T15:55:11;7.80;;;2.47;;
67597;SDS011;62026;39.230;9.122;2023-03-05T15:57:41;5.72;;;2.72;;
67597;SDS011;62026;39.230;9.122;2023-03-05T16:00:10;5.45;;;2.60;;
67597;SDS011;62026;39.230;9.122;2023-03-05T16:02:38;3.95;;;2.70;;
67597;SDS011;62026;39.230;9.122;2023-03-05T16:05:05;8.15;;;2.80;;
67597;SDS011;62026;39.230;9.122;2023-03-05T16:07:32;8.02;;;2.80;;
67597;SDS011;62026;39.230;9.122;2023-03-05T16:10:03;8.02;;;2.97;;
67597;SDS011;62026;39.230;9.122;2023-03-05T16:12:32;5.80;;;2.60;;
67597;SDS011;62026;39.230;9.122;2023-03-05T16:15:08;7.43;;;2.70;;
67597;SDS011;62026;39.230;9.122;2023-03-05T16:17:39;4.78;;;2.45;;
67597;SDS011;62026;39.230;9.122;2023-03-05T16:20:08;5.78;;;2.85;;
67597;SDS011;62026;39.230;9.122;2023-03-05T16:22:36;11.85;;;2.70;;
67597;SDS011;62026;39.230;9.122;2023-03-05T16:25:02;5.18;;;2.47;;
67597;SDS011;62026;39.230;9.122;2023-03-05T16:27:28;6.03;;;2.92;;
67597;SDS011;62026;39.230;9.122;2023-03-05T16:29:55;4.25;;;2.47;;
67597;SDS011;62026;39.230;9.122;2023-03-05T16:32:22;5.60;;;2.95;;
67597;SDS011;62026;39.230;9.122;2023-03-05T16:34:48;5.72;;;2.78;;
67597;SDS011;62026;39.230;9.122;2023-03-05T16:37:19;6.25;;;2.80;;
67597;SDS011;62026;39.230;9.122;2023-03-05T16:39:47;5.35;;;2.85;;
67597;SDS011;62026;39.230;9.122;2023-03-05T16:42:13;2.97;;;2.33;;
67597;SDS011;62026;39.230;9.122;2023-03-05T16:44:41;5.95;;;3.00;;